createdAt,value
2023-02-22T00:00:01.629Z,99951.16
2023-02-22T00:05:06.440Z,99962.00
2023-02-22T00:10:13.348Z,99959.47
2023-02-22T00:15:17.537Z,99966.78
2023-02-22T00:20:19.903Z,99960.63
2023-02-22T00:25:24.183Z,99966.38
2023-02-22T00:30:28.990Z,99966.75
2023-02-22T00:35:31.483Z,99965.84
2023-02-22T00:40:34.719Z,99958.03
2023-02-22T00:45:37.433Z,99962.28
2023-02-22T00:50:39.352Z,99973.88
2023-02-22T00:55:41.451Z,99970.56
2023-02-22T01:00:43.464Z,99971.38
2023-02-22T01:05:45.620Z,99965.38
2023-02-22T01:10:47.867Z,99964.13
2023-02-22T01:15:50.007Z,99960.63
2023-02-22T01:20:51.832Z,99960.66
2023-02-22T01:25:54.108Z,99964.75
2023-02-22T01:30:56.299Z,99952.94
2023-02-22T01:36:00.032Z,99956.34
2023-02-22T01:41:02.546Z,99968.91
2023-02-22T01:46:06.482Z,99957.06
2023-02-22T01:51:17.677Z,99948.53
2023-02-22T01:56:22.184Z,99948.44
2023-02-22T02:01:26.119Z,99947.47
2023-02-22T02:06:32.209Z,99949.00
2023-02-22T02:11:35.130Z,99948.03
2023-02-22T02:16:50.292Z,99945.13
2023-02-22T02:22:27.046Z,99951.19
2023-02-22T02:27:54.995Z,99950.50
2023-02-22T02:33:00.209Z,99945.19
2023-02-22T02:38:30.626Z,99955.06
2023-02-22T02:43:35.209Z,99962.97
2023-02-22T02:48:41.800Z,99954.00
2023-02-22T02:53:47.426Z,99946.94
2023-02-22T02:58:52.744Z,99955.38
2023-02-22T03:04:17.328Z,99952.31
2023-02-22T03:09:35.613Z,99947.44
2023-02-22T03:14:56.026Z,99945.31
2023-02-22T03:20:09.743Z,99945.59
2023-02-22T03:25:22.482Z,99946.50
2023-02-22T03:30:37.815Z,99940.81
2023-02-22T03:35:49.246Z,99943.44
2023-02-22T03:40:54.788Z,99946.94
2023-02-22T03:45:58.640Z,99950.16
2023-02-22T03:51:04.393Z,99957.25
2023-02-22T03:56:10.475Z,99951.50
2023-02-22T04:01:13.490Z,99944.19
2023-02-22T04:06:15.354Z,99950.94
2023-02-22T04:11:18.887Z,99947.66
2023-02-22T04:16:20.696Z,99952.91
2023-02-22T04:21:22.817Z,99945.38
2023-02-22T04:26:25.839Z,99947.91
2023-02-22T04:31:31.811Z,99930.25
2023-02-22T04:36:33.956Z,99926.28
2023-02-22T04:41:36.050Z,99918.84
2023-02-22T04:46:38.216Z,99904.56
2023-02-22T04:51:41.204Z,99915.16
2023-02-22T04:56:45.964Z,99916.94
2023-02-22T05:01:47.751Z,99917.97
2023-02-22T05:06:49.452Z,99921.44
2023-02-22T05:11:51.039Z,99921.50
2023-02-22T05:16:57.645Z,99921.56
2023-02-22T05:21:59.754Z,99915.00
2023-02-22T05:27:01.462Z,99918.44
2023-02-22T05:32:03.166Z,99918.63
2023-02-22T05:37:05.260Z,99924.63
2023-02-22T05:42:07.129Z,99931.41
2023-02-22T05:47:08.788Z,99926.38
2023-02-22T05:52:10.412Z,99930.66
2023-02-22T05:57:12.281Z,99933.97
2023-02-22T06:02:14.098Z,99940.69
2023-02-22T06:07:16.252Z,99939.09
2023-02-22T06:12:17.933Z,99944.97
2023-02-22T06:17:20.642Z,99938.38
2023-02-22T06:22:22.523Z,99939.22
2023-02-22T06:27:24.135Z,99942.63
2023-02-22T06:32:26.377Z,99942.69
2023-02-22T06:37:28.207Z,99953.63
2023-02-22T06:42:29.896Z,99942.03
2023-02-22T06:47:31.496Z,99948.84
2023-02-22T06:52:33.148Z,99948.06
2023-02-22T06:57:34.724Z,99953.94
2023-02-22T07:02:37.228Z,99950.66
2023-02-22T07:07:39.694Z,99951.63
2023-02-22T07:12:41.327Z,99964.31
2023-02-22T07:17:42.927Z,99960.28
2023-02-22T07:22:44.535Z,99958.81
2023-02-22T07:27:47.282Z,99954.91
2023-02-22T07:32:48.969Z,99958.50
2023-02-22T07:37:50.772Z,99951.28
2023-02-22T07:43:06.593Z,99958.16
2023-02-22T07:48:09.361Z,99947.28
2023-02-22T07:53:15.098Z,99952.31
2023-02-22T07:58:19.495Z,99952.47
2023-02-22T08:03:23.749Z,99953.47
2023-02-22T08:08:25.433Z,99948.47
2023-02-22T08:13:27.246Z,99948.59
2023-02-22T08:18:28.888Z,99941.97
2023-02-22T08:23:31.645Z,99942.06
2023-02-22T08:28:33.288Z,99938.78
2023-02-22T08:33:35.582Z,99934.75
2023-02-22T08:38:37.774Z,99936.56
2023-02-22T08:43:39.421Z,99935.78
2023-02-22T08:48:50.746Z,99934.19
2023-02-22T08:53:53.596Z,99931.66
2023-02-22T08:58:55.955Z,99932.50
2023-02-22T09:03:57.799Z,99938.38
2023-02-22T09:08:59.467Z,99932.47
2023-02-22T09:14:01.060Z,99938.34
2023-02-22T09:19:02.669Z,99930.75
2023-02-22T09:24:08.471Z,99927.38
2023-02-22T09:29:10.547Z,99927.34
2023-02-22T09:34:15.736Z,99924.00
2023-02-22T09:39:17.888Z,99916.34
2023-02-22T09:44:28.995Z,99922.28
2023-02-22T09:49:57.450Z,99908.69
2023-02-22T09:55:23.256Z,99918.69
2023-02-22T10:00:33.760Z,99907.63
2023-02-22T10:05:42.917Z,99895.66
2023-02-22T10:10:46.236Z,99899.78
2023-02-22T10:16:03.196Z,99894.59
2023-02-22T10:21:31.611Z,99887.78
2023-02-22T10:26:36.624Z,99874.19
2023-02-22T10:31:46.187Z,99870.66
2023-02-22T10:36:51.275Z,99864.63
2023-02-22T10:41:57.272Z,99856.97
2023-02-22T10:47:01.677Z,99845.22
2023-02-22T10:52:12.819Z,99839.16
2023-02-22T10:57:18.468Z,99831.53
2023-02-22T11:02:31.861Z,99833.91
2023-02-22T11:07:36.193Z,99834.53
2023-02-22T11:12:41.603Z,99822.66
2023-02-22T11:17:46.210Z,99821.66
2023-02-22T11:22:54.632Z,99813.78
2023-02-22T11:28:11.113Z,99810.44
2023-02-22T11:33:15.716Z,99811.91
2023-02-22T11:38:31.241Z,99802.28
2023-02-22T11:43:32.869Z,99802.00
2023-02-22T11:48:40.122Z,99793.59
2023-02-22T11:54:00.923Z,99790.06
2023-02-22T11:59:30.476Z,99780.44
2023-02-22T12:04:50.427Z,99784.72
2023-02-22T12:10:18.509Z,99773.19
2023-02-22T12:15:36.881Z,99770.25
2023-02-22T12:20:56.807Z,99762.25
2023-02-22T12:26:08.309Z,99755.53
2023-02-22T12:31:20.268Z,99764.03
2023-02-22T12:36:28.236Z,99742.84
2023-02-22T12:41:54.489Z,99745.78
2023-02-22T12:46:58.377Z,99749.19
2023-02-22T12:52:21.921Z,99738.47
2023-02-22T12:57:33.868Z,99739.22
2023-02-22T13:02:40.152Z,99725.44
2023-02-22T13:07:57.023Z,99716.97
2023-02-22T13:13:11.238Z,99715.69
2023-02-22T13:18:18.386Z,99715.34
2023-02-22T13:23:46.059Z,99707.09
2023-02-22T13:29:09.264Z,99710.28
2023-02-22T13:34:40.320Z,99713.78
2023-02-22T13:40:03.477Z,99705.19
2023-02-22T13:45:39.194Z,99704.50
2023-02-22T13:51:02.409Z,99704.63
2023-02-22T13:56:04.536Z,99701.22
2023-02-22T14:01:06.159Z,99696.19
2023-02-22T14:06:37.083Z,99693.97
2023-02-22T14:11:43.143Z,99693.16
2023-02-22T14:16:45.461Z,99688.06
2023-02-22T14:22:07.396Z,99686.41
2023-02-22T14:27:10.692Z,99683.34
2023-02-22T14:32:15.072Z,99676.81
2023-02-22T14:37:24.921Z,99684.63
2023-02-22T14:42:34.689Z,99672.25
2023-02-22T14:47:43.902Z,99679.84
2023-02-22T14:52:47.532Z,99669.84
2023-02-22T14:58:11.026Z,99672.63
2023-02-22T15:03:32.987Z,99668.53
2023-02-22T15:08:34.691Z,99668.56
2023-02-22T15:13:36.308Z,99670.28
2023-02-22T15:18:42.319Z,99666.28
2023-02-22T15:23:47.068Z,99673.16
2023-02-22T15:28:54.380Z,99669.00
2023-02-22T15:33:56.595Z,99676.66
2023-02-22T15:38:58.777Z,99673.31
2023-02-22T15:44:17.815Z,99682.69
2023-02-22T15:49:24.821Z,99678.63
2023-02-22T15:54:28.049Z,99679.63
2023-02-22T15:59:33.791Z,99678.88
2023-02-22T16:04:35.865Z,99681.47
2023-02-22T16:09:37.748Z,99683.22
2023-02-22T16:14:44.948Z,99685.81
2023-02-22T16:19:50.336Z,99689.19
2023-02-22T16:24:54.583Z,99695.09
2023-02-22T16:30:22.188Z,99697.63
2023-02-22T16:35:28.797Z,99704.34
2023-02-22T16:40:34.568Z,99703.47
2023-02-22T16:45:36.300Z,99716.94
2023-02-22T16:50:37.985Z,99719.44
2023-02-22T16:55:44.718Z,99726.94
2023-02-22T17:00:46.432Z,99731.09
2023-02-22T17:05:48.085Z,99731.06
2023-02-22T17:10:51.791Z,99737.72
2023-02-22T17:15:56.550Z,99741.03
2023-02-22T17:20:58.109Z,99732.56
2023-02-22T17:26:04.635Z,99740.13
2023-02-22T17:31:07.176Z,99737.56
2023-02-22T17:36:08.863Z,99743.34
2023-02-22T17:41:10.667Z,99746.66
2023-02-22T17:46:12.551Z,99746.59
2023-02-22T17:51:14.353Z,99744.84
2023-02-22T17:56:20.813Z,99736.38
2023-02-22T18:01:28.736Z,99751.41
2023-02-22T18:06:32.735Z,99742.94
2023-02-22T18:11:34.435Z,99738.59
2023-02-22T18:16:38.896Z,99725.88
2023-02-22T18:21:40.727Z,99739.13
2023-02-22T18:26:42.520Z,99737.31
2023-02-22T18:31:45.483Z,99744.81
2023-02-22T18:36:48.628Z,99746.34
2023-02-22T18:41:50.425Z,99737.03
2023-02-22T18:46:53.527Z,99727.72
2023-02-22T18:51:55.122Z,99738.63
2023-02-22T18:56:56.963Z,99733.66
2023-02-22T19:01:58.740Z,99741.13
2023-02-22T19:07:00.352Z,99733.53
2023-02-22T19:12:02.403Z,99740.81
2023-02-22T19:17:07.322Z,99735.72
2023-02-22T19:22:09.372Z,99737.38
2023-02-22T19:27:11.927Z,99739.81
2023-02-22T19:32:13.763Z,99730.31
2023-02-22T19:37:18.753Z,99730.66
2023-02-22T19:42:20.401Z,99739.63
2023-02-22T19:47:22.620Z,99739.56
2023-02-22T19:52:24.278Z,99741.91
2023-02-22T19:57:26.773Z,99743.13
2023-02-22T20:02:28.456Z,99751.22
2023-02-22T20:07:30.033Z,99758.53
2023-02-22T20:12:31.750Z,99753.97
2023-02-22T20:17:33.866Z,99762.06
2023-02-22T20:22:35.672Z,99780.44
2023-02-22T20:27:37.603Z,99773.78
2023-02-22T20:32:39.662Z,99767.09
2023-02-22T20:37:42.595Z,99768.16
2023-02-22T20:42:44.584Z,99773.13
2023-02-22T20:47:46.211Z,99770.00
2023-02-22T20:52:47.794Z,99774.16
2023-02-22T20:57:49.433Z,99770.78
2023-02-22T21:02:51.515Z,99765.66
2023-02-22T21:07:53.855Z,99769.00
2023-02-22T21:12:56.971Z,99768.13
2023-02-22T21:18:00.436Z,99765.44
2023-02-22T21:23:02.960Z,99765.44
2023-02-22T21:28:05.456Z,99768.59
2023-02-22T21:33:07.068Z,99763.16
2023-02-22T21:38:14.550Z,99756.84
2023-02-22T21:43:16.629Z,99761.56
2023-02-22T21:48:18.191Z,99764.84
2023-02-22T21:53:20.287Z,99760.03
2023-02-22T21:58:22.478Z,99754.19
2023-02-22T22:03:24.526Z,99748.31
2023-02-22T22:08:27.996Z,99744.88
2023-02-22T22:13:29.567Z,99749.19
2023-02-22T22:18:31.158Z,99753.19
2023-02-22T22:23:33.209Z,99747.47
2023-02-22T22:28:35.620Z,99750.03
2023-02-22T22:33:37.795Z,99745.59
2023-02-22T22:38:39.439Z,99743.47
2023-02-22T22:43:46.034Z,99735.91
2023-02-22T22:48:48.077Z,99735.44
2023-02-22T22:53:51.014Z,99739.59
2023-02-22T22:58:55.544Z,99744.63
2023-02-22T23:04:02.081Z,99748.75
2023-02-22T23:09:13.819Z,99738.78
2023-02-22T23:14:21.223Z,99747.03
2023-02-22T23:19:22.818Z,99741.97
2023-02-22T23:24:27.524Z,99744.31
2023-02-22T23:29:29.981Z,99740.81
2023-02-22T23:34:31.935Z,99728.88
2023-02-22T23:39:33.544Z,99727.78
2023-02-22T23:44:35.338Z,99724.13
2023-02-22T23:49:38.479Z,99727.59
2023-02-22T23:54:43.878Z,99726.88
2023-02-22T23:59:46.394Z,99725.44
